sensor_id;sensor_type;location;lat;lon;timestamp;pressure;altitude;pressure_sealevel;temperature;humidity
76024;BME280;64719;52.124;6.226;2022-10-26T18:08:00;102038.97;;;16.36;80.36
76024;BME280;64719;52.124;6.226;2022-10-26T18:10:26;102044.09;;;16.33;80.19
76024;BME280;64719;52.124;6.226;2022-10-26T18:12:52;102045.88;;;16.27;80.04
76024;BME280;64719;52.124;6.226;2022-10-26T18:15:19;102055.63;;;16.23;80.27
76024;BME280;64719;52.124;6.226;2022-10-26T18:17:49;102056.59;;;16.17;80.03
76024;BME280;64719;52.124;6.226;2022-10-26T18:20:17;102055.41;;;16.13;79.94
76024;BME280;64719;52.124;6.226;2022-10-26T18:22:44;102055.75;;;16.05;79.69
76024;BME280;64719;52.124;6.226;2022-10-26T18:25:11;102055.66;;;16.00;80.08
76024;BME280;64719;52.124;6.226;2022-10-26T18:27:37;102056.38;;;15.96;79.73
76024;BME280;64719;52.124;6.226;2022-10-26T18:30:05;102057.31;;;15.90;80.02
76024;BME280;64719;52.124;6.226;2022-10-26T18:32:32;102061.59;;;15.86;79.85
76024;BME280;64719;52.124;6.226;2022-10-26T18:34:58;102065.03;;;15.81;79.58
76024;BME280;64719;52.124;6.226;2022-10-26T18:37:26;102075.03;;;15.76;79.84
76024;BME280;64719;52.124;6.226;2022-10-26T18:39:52;102077.63;;;15.71;79.56
76024;BME280;64719;52.124;6.226;2022-10-26T19:08:05;102116.72;;;15.01;84.03
76024;BME280;64719;52.124;6.226;2022-10-26T19:10:32;102120.13;;;14.24;88.16
76024;BME280;64719;52.124;6.226;2022-10-26T19:12:59;102127.38;;;13.81;90.68
76024;BME280;64719;52.124;6.226;2022-10-26T19:15:30;102125.44;;;13.57;92.14
76024;BME280;64719;52.124;6.226;2022-10-26T19:17:57;102123.63;;;13.44;92.59
76024;BME280;64719;52.124;6.226;2022-10-26T19:20:23;102128.09;;;13.32;93.33
76024;BME280;64719;52.124;6.226;2022-10-26T19:22:51;102117.47;;;13.24;93.75
76024;BME280;64719;52.124;6.226;2022-10-26T19:25:19;102120.03;;;13.13;93.81
76024;BME280;64719;52.124;6.226;2022-10-26T19:27:46;102133.91;;;12.98;95.24
76024;BME280;64719;52.124;6.226;2022-10-26T19:30:12;102131.84;;;12.93;95.10
76024;BME280;64719;52.124;6.226;2022-10-26T19:32:39;102139.81;;;12.82;95.09
76024;BME280;64719;52.124;6.226;2022-10-26T19:35:06;102138.38;;;12.79;95.92
76024;BME280;64719;52.124;6.226;2022-10-26T19:37:33;102140.50;;;12.64;95.11
76024;BME280;64719;52.124;6.226;2022-10-26T19:39:59;102138.00;;;12.56;95.53
76024;BME280;64719;52.124;6.226;2022-10-26T19:42:27;102141.19;;;12.47;95.93
76024;BME280;64719;52.124;6.226;2022-10-26T19:44:54;102143.28;;;12.45;96.68
76024;BME280;64719;52.124;6.226;2022-10-26T19:47:20;102142.03;;;12.41;96.64
76024;BME280;64719;52.124;6.226;2022-10-26T19:49:48;102143.72;;;12.42;97.07
76024;BME280;64719;52.124;6.226;2022-10-26T19:52:14;102145.19;;;12.31;96.60
76024;BME280;64719;52.124;6.226;2022-10-26T19:54:41;102148.94;;;12.37;97.04
76024;BME280;64719;52.124;6.226;2022-10-26T19:57:07;102156.28;;;12.23;96.69
76024;BME280;64719;52.124;6.226;2022-10-26T19:59:35;102155.03;;;12.26;97.51
76024;BME280;64719;52.124;6.226;2022-10-26T20:02:02;102167.19;;;12.17;97.12
76024;BME280;64719;52.124;6.226;2022-10-26T20:04:28;102151.06;;;12.02;97.42
76024;BME280;64719;52.124;6.226;2022-10-26T20:06:55;102169.47;;;12.07;97.72
76024;BME280;64719;52.124;6.226;2022-10-26T20:09:21;102169.47;;;12.07;97.49
76024;BME280;64719;52.124;6.226;2022-10-26T20:11:48;102172.22;;;12.13;98.44
76024;BME280;64719;52.124;6.226;2022-10-26T20:14:14;102173.06;;;12.14;97.62
76024;BME280;64719;52.124;6.226;2022-10-26T20:16:42;102164.66;;;12.02;97.83
76024;BME280;64719;52.124;6.226;2022-10-26T20:19:09;102178.28;;;11.96;98.08
76024;BME280;64719;52.124;6.226;2022-10-26T20:21:36;102173.44;;;11.78;97.57
76024;BME280;64719;52.124;6.226;2022-10-26T20:24:03;102174.06;;;11.80;98.22
76024;BME280;64719;52.124;6.226;2022-10-26T20:26:30;102179.69;;;11.72;98.14
76024;BME280;64719;52.124;6.226;2022-10-26T20:28:56;102191.41;;;11.73;99.07
76024;BME280;64719;52.124;6.226;2022-10-26T20:31:23;102181.78;;;11.64;98.50
76024;BME280;64719;52.124;6.226;2022-10-26T20:33:51;102199.53;;;11.60;98.38
76024;BME280;64719;52.124;6.226;2022-10-26T20:36:18;102202.69;;;11.63;98.81
76024;BME280;64719;52.124;6.226;2022-10-26T20:38:45;102212.69;;;11.56;98.60
76024;BME280;64719;52.124;6.226;2022-10-26T20:41:12;102209.94;;;11.50;98.50
76024;BME280;64719;52.124;6.226;2022-10-26T20:43:40;102222.25;;;11.46;98.61
76024;BME280;64719;52.124;6.226;2022-10-26T20:46:09;102218.06;;;11.43;98.89
76024;BME280;64719;52.124;6.226;2022-10-26T20:48:36;102223.53;;;11.50;99.60
76024;BME280;64719;52.124;6.226;2022-10-26T20:51:06;102225.19;;;11.44;99.43
76024;BME280;64719;52.124;6.226;2022-10-26T20:53:41;102227.50;;;11.54;99.92
76024;BME280;64719;52.124;6.226;2022-10-26T20:56:14;102231.47;;;11.51;99.64
76024;BME280;64719;52.124;6.226;2022-10-26T20:58:46;102237.16;;;11.56;99.72
76024;BME280;64719;52.124;6.226;2022-10-26T21:01:23;102224.88;;;11.67;99.91
76024;BME280;64719;52.124;6.226;2022-10-26T21:03:51;102224.16;;;11.52;99.55
76024;BME280;64719;52.124;6.226;2022-10-26T21:06:19;102220.38;;;11.46;99.67
76024;BME280;64719;52.124;6.226;2022-10-26T21:08:47;102226.88;;;11.52;99.97
76024;BME280;64719;52.124;6.226;2022-10-26T21:11:14;102221.41;;;11.45;99.69
76024;BME280;64719;52.124;6.226;2022-10-26T21:13:41;102218.03;;;11.37;99.92
76024;BME280;64719;52.124;6.226;2022-10-26T21:16:08;102220.75;;;11.37;99.75
76024;BME280;64719;52.124;6.226;2022-10-26T21:18:34;102218.41;;;11.27;99.51
76024;BME280;64719;52.124;6.226;2022-10-26T21:21:01;102223.25;;;11.32;99.72
76024;BME280;64719;52.124;6.226;2022-10-26T21:23:30;102221.44;;;11.52;100.00
76024;BME280;64719;52.124;6.226;2022-10-26T21:25:56;102231.03;;;11.41;100.00
76024;BME280;64719;52.124;6.226;2022-10-26T21:28:23;102234.97;;;11.32;100.00
76024;BME280;64719;52.124;6.226;2022-10-26T21:30:49;102234.41;;;11.50;100.00
76024;BME280;64719;52.124;6.226;2022-10-26T21:33:16;102239.59;;;11.38;100.00
76024;BME280;64719;52.124;6.226;2022-10-26T21:35:51;102239.34;;;11.33;100.00
76024;BME280;64719;52.124;6.226;2022-10-26T21:38:17;102240.19;;;11.40;100.00
76024;BME280;64719;52.124;6.226;2022-10-26T21:40:46;102245.72;;;11.53;100.00
76024;BME280;64719;52.124;6.226;2022-10-26T21:43:12;102241.28;;;11.52;100.00
76024;BME280;64719;52.124;6.226;2022-10-26T21:45:39;102240.47;;;11.52;100.00
76024;BME280;64719;52.124;6.226;2022-10-26T21:48:05;102232.28;;;11.45;100.00
76024;BME280;64719;52.124;6.226;2022-10-26T21:50:32;102229.53;;;11.39;100.00
76024;BME280;64719;52.124;6.226;2022-10-26T21:52:58;102237.06;;;11.43;100.00
76024;BME280;64719;52.124;6.226;2022-10-26T21:55:25;102232.03;;;11.34;100.00
76024;BME280;64719;52.124;6.226;2022-10-26T21:57:53;102230.13;;;11.28;100.00
76024;BME280;64719;52.124;6.226;2022-10-26T22:00:19;102226.81;;;11.32;100.00
76024;BME280;64719;52.124;6.226;2022-10-26T22:02:46;102230.78;;;11.36;100.00
76024;BME280;64719;52.124;6.226;2022-10-26T22:05:12;102239.16;;;11.35;100.00
76024;BME280;64719;52.124;6.226;2022-10-26T22:07:39;102242.91;;;11.34;100.00
76024;BME280;64719;52.124;6.226;2022-10-26T22:10:06;102243.72;;;11.28;100.00
76024;BME280;64719;52.124;6.226;2022-10-26T22:12:33;102236.03;;;11.38;100.00
76024;BME280;64719;52.124;6.226;2022-10-26T22:15:01;102236.03;;;11.38;100.00
76024;BME280;64719;52.124;6.226;2022-10-26T22:17:27;102245.84;;;11.39;100.00
76024;BME280;64719;52.124;6.226;2022-10-26T22:19:54;102245.84;;;11.39;100.00
76024;BME280;64719;52.124;6.226;2022-10-26T22:22:20;102236.59;;;11.27;100.00
76024;BME280;64719;52.124;6.226;2022-10-26T22:24:47;102244.41;;;11.43;100.00
76024;BME280;64719;52.124;6.226;2022-10-26T22:27:13;102236.47;;;11.48;100.00
76024;BME280;64719;52.124;6.226;2022-10-26T22:29:40;102239.06;;;11.62;100.00
76024;BME280;64719;52.124;6.226;2022-10-26T22:32:08;102250.91;;;11.48;100.00
76024;BME280;64719;52.124;6.226;2022-10-26T22:34:34;102251.03;;;11.74;100.00
76024;BME280;64719;52.124;6.226;2022-10-26T22:37:01;102244.31;;;11.64;100.00
76024;BME280;64719;52.124;6.226;2022-10-26T22:39:27;102238.50;;;11.33;100.00
76024;BME280;64719;52.124;6.226;2022-10-26T22:41:54;102235.97;;;11.25;100.00
76024;BME280;64719;52.124;6.226;2022-10-26T22:44:20;102242.22;;;11.25;100.00
76024;BME280;64719;52.124;6.226;2022-10-26T22:46:47;102243.44;;;11.16;100.00
76024;BME280;64719;52.124;6.226;2022-10-26T22:49:15;102247.84;;;11.17;100.00
76024;BME280;64719;52.124;6.226;2022-10-26T22:51:41;102243.41;;;11.09;100.00
76024;BME280;64719;52.124;6.226;2022-10-26T22:54:11;102248.72;;;11.24;100.00
76024;BME280;64719;52.124;6.226;2022-10-26T22:56:38;102247.25;;;11.28;100.00
76024;BME280;64719;52.124;6.226;2022-10-26T22:59:05;102240.81;;;11.29;100.00
76024;BME280;64719;52.124;6.226;2022-10-26T23:01:37;102256.19;;;11.16;100.00
76024;BME280;64719;52.124;6.226;2022-10-26T23:04:05;102258.38;;;11.33;100.00
76024;BME280;64719;52.124;6.226;2022-10-26T23:06:33;102263.88;;;11.53;100.00
76024;BME280;64719;52.124;6.226;2022-10-26T23:09:00;102259.06;;;11.48;100.00
76024;BME280;64719;52.124;6.226;2022-10-26T23:11:27;102266.75;;;11.38;100.00
76024;BME280;64719;52.124;6.226;2022-10-26T23:13:56;102265.47;;;11.34;100.00
76024;BME280;64719;52.124;6.226;2022-10-26T23:16:23;102267.22;;;11.48;100.00
76024;BME280;64719;52.124;6.226;2022-10-26T23:18:50;102269.56;;;11.58;100.00
76024;BME280;64719;52.124;6.226;2022-10-26T23:21:18;102272.84;;;11.47;100.00
76024;BME280;64719;52.124;6.226;2022-10-26T23:23:46;102273.41;;;11.36;100.00
76024;BME280;64719;52.124;6.226;2022-10-26T23:26:14;102264.97;;;11.18;100.00
76024;BME280;64719;52.124;6.226;2022-10-26T23:28:42;102268.28;;;11.13;100.00
76024;BME280;64719;52.124;6.226;2022-10-26T23:31:13;102271.00;;;11.06;100.00
76024;BME280;64719;52.124;6.226;2022-10-26T23:33:40;102276.38;;;11.00;100.00
76024;BME280;64719;52.124;6.226;2022-10-26T23:36:06;102283.06;;;11.04;100.00
76024;BME280;64719;52.124;6.226;2022-10-26T23:38:33;102282.44;;;11.02;100.00
76024;BME280;64719;52.124;6.226;2022-10-26T23:41:00;102268.88;;;11.08;100.00
76024;BME280;64719;52.124;6.226;2022-10-26T23:43:27;102267.03;;;11.09;100.00
76024;BME280;64719;52.124;6.226;2022-10-26T23:45:54;102275.84;;;11.18;100.00
76024;BME280;64719;52.124;6.226;2022-10-26T23:48:21;102280.16;;;11.05;100.00
76024;BME280;64719;52.124;6.226;2022-10-26T23:50:49;102290.09;;;10.92;100.00
76024;BME280;64719;52.124;6.226;2022-10-26T23:53:18;102282.84;;;10.99;100.00
76024;BME280;64719;52.124;6.226;2022-10-26T23:55:45;102278.81;;;10.88;100.00
76024;BME280;64719;52.124;6.226;2022-10-26T23:58:14;102285.47;;;10.86;100.00
